Terminal Aerodrome Forecast
Issued by NWS Atlanta, GA

Home | Current Version | Previous Version | Text Only | Print | Product List | Glossary On
Versions: 1 2 3 4 5 6 7 8 9 10 11 12 13 14 15 16 17 18 19 20 21 22 23 24 25 26 27 28 29 30 31 32 33
000
FTUS42 KFFC 120500 RRA
TAFAHN
TAF
KAHN 120543Z 1206/1306 00000KT P6SM FEW040
     FM120900 00000KT 5SM BR SCT008
      TEMPO 1210/1213 3SM BR BKN008
     FM121300 00000KT P6SM FEW008 SCT025
     FM121500 11005KT P6SM SCT030
     FM121800 11005KT P6SM SCT045 PROB30 1219/1222 3SM TSRA BKN035CB
     FM130300 07003KT P6SM FEW080=

USA.gov is the U.S. government's official web portal to all federal, state and local government web resources and services.